METAR Data
IDs: Format: Raw Decoded Include TAF

Data at: 0249 UTC 25 Feb 2021

EPMO 250230Z 22004KT 4000 BR NSC 03/03 Q1029